Etusivu
METAR-TAF:

METAR-TAF

Lentoasemat :

Alexandria, Minnesota, Yhdysvallat

Leveyspiiri: 45-52-07N, Pituuspiiri: 095-23-39W, korkeus merenpinnasta: 434 m

Tämänhetkinen sää

Tämä raportti tehtiin 13 minuuttia sitten, kello 10.53 UTC
Tuuli 5 kn lännestä/lounaasta
Lämpötila -20°C
Kosteus 77%
Ilmanpaine 1035 hPa
Näkyvyys: 16.1 km
Pilvistä 10000 ft:n korkeudessa

METAR: KAXN 191053Z AUTO 25005KT 10SM OVC100 M20/M23 A3056 RMK AO2 SLP392 T12001228

Aika: 05:06 (11:06 UTC)

Sääennuste

Tämä raportti tehtiin 5 tuntia ja 46 minuuttia sitten, kello 05.20 UTC
Ennuste voimassa 19. päivästä klo 06 UTC - 20. päivään klo 06 UTC
Tuuli 6 kn lännestä/luoteesta
Näkyvyys: 10 km
Muutamia pilviä 11000 ft:n korkeudessa
From 19. päivästä klo 1500 UTC
Tuuli 7 kn luoteesta
Näkyvyys: 10 km
selkeää

TAF: KAXN 190520Z 1906/2006 30006KT P6SM FEW110 FM191500 31007KT P6SM SKC

Säähavainnot ja -ennusteet yli 4000 lentoasemalta (METAR- ja TAF-raportit).

Käytössä olevat sääasemat on merkitty karttaan keltaisilla ja punaisilla pisteillä.

Aseta hiiri pisteen päälle nähdäksesi sääaseman nimen.

Klikkaa sitten nähdäksesi säähavainnot ja -ennusteet.

Kartan vaihtaminen: klikkaa mustalla rastilla varustettuja vihreitä pisteitä, niin voit zoomata sisään; viivalla varustettua vihreää pistettä, niin voit zoomata ulos tai vihreitä nuolia, niin pääset viereisille kartoille.


METAR-TAF: